Time;durP1;ratioP1;P1;durP2;ratioP2;P2;SDS_P1;SDS_P2;PMS_P1;PMS_P2;Temp;Humidity;BMP_temperature;BMP_pressure;BME280_temperature;BME280_humidity;BME280_pressure;Samples;Min_cycle;Max_cycle;Signal;HPM_P1;HPM_P2
2023/05/27 13:20:54;;;;;;;7.65;4.00;;;21.60;83.20;;;;;;1957855;28;20420;-64
2023/05/27 13:21:52;;;;;;;8.65;4.50;;;36.20;44.60;;;;;;1961279;28;20112;-64
2023/05/27 13:22:50;;;;;;;10.40;4.70;;;37.40;42.70;;;;;;1961892;28;20792;-63
2023/05/27 13:23:47;;;;;;;6.35;4.28;;;38.50;41.40;;;;;;1961644;28;20045;-63
2023/05/27 13:24:45;;;;;;;8.32;4.80;;;39.20;40.20;;;;;;1963300;28;20026;-63
2023/05/27 13:25:42;;;;;;;10.15;4.80;;;39.80;40.00;;;;;;1961537;28;20368;-63
2023/05/27 13:26:40;;;;;;;9.98;4.80;;;40.80;39.30;;;;;;1963330;28;20500;-63
2023/05/27 13:27:38;;;;;;;9.90;4.05;;;41.40;38.90;;;;;;1962544;28;20030;-63
2023/05/27 13:28:36;;;;;;;9.90;4.57;;;42.00;39.20;;;;;;1960543;28;20027;-63
2023/05/27 13:29:35;;;;;;;8.88;4.20;;;42.20;37.90;;;;;;1963558;28;20018;-63
2023/05/27 13:30:33;;;;;;;8.40;4.88;;;43.00;37.20;;;;;;1958231;28;20050;-63
2023/05/27 13:31:30;;;;;;;13.60;5.32;;;43.00;36.60;;;;;;1953081;28;20050;-63
2023/05/27 13:32:28;;;;;;;31.17;7.97;;;43.10;36.60;;;;;;1960698;28;20053;-63
2023/05/27 13:33:25;;;;;;;7.18;4.45;;;43.00;35.70;;;;;;1964589;28;20026;-63
2023/05/27 13:34:23;;;;;;;12.45;5.18;;;43.20;36.40;;;;;;1965140;28;20030;-64
2023/05/27 13:35:20;;;;;;;30.90;6.03;;;43.40;36.30;;;;;;1962956;28;20494;-64
2023/05/27 13:36:18;;;;;;;14.02;4.38;;;43.50;36.20;;;;;;1963586;28;20030;-64
2023/05/27 13:37:41;;;;;;;16.58;5.03;;;43.10;35.70;;;;;;1978864;28;20397;-62
2023/05/27 13:38:38;;;;;;;13.05;5.28;;;41.30;37.10;;;;;;1974950;28;20025;-68
2023/05/27 13:39:42;;;;;;;12.43;4.40;;;38.70;37.70;;;;;;1974191;28;20041;-63
2023/05/27 13:40:40;;;;;;;10.20;4.72;;;36.90;39.40;;;;;;1974244;28;20056;-64
2023/05/27 13:41:38;;;;;;;18.10;5.72;;;35.20;41.50;;;;;;1946385;28;20572;-64
2023/05/27 13:42:36;;;;;;;16.88;5.68;;;33.80;43.30;;;;;;1915212;28;20037;-65
2023/05/27 13:43:33;;;;;;;16.27;5.07;;;32.50;45.00;;;;;;1871572;28;20049;-69
2023/05/27 13:44:31;;;;;;;19.40;5.68;;;31.10;46.50;;;;;;1941044;28;20054;-69
2023/05/27 13:45:28;;;;;;;11.75;5.63;;;29.70;48.30;;;;;;1951363;28;20273;-67
2023/05/27 13:46:26;;;;;;;19.08;5.10;;;28.90;49.80;;;;;;1954538;28;20030;-66
2023/05/27 13:47:23;;;;;;;12.80;5.32;;;28.30;51.00;;;;;;1955081;28;20022;-65
2023/05/27 13:48:21;;;;;;;14.30;5.55;;;27.40;52.30;;;;;;1955651;28;20026;-64
2023/05/27 13:49:18;;;;;;;25.08;6.53;;;26.90;53.30;;;;;;1904923;28;20047;-63
2023/05/27 13:50:16;;;;;;;18.17;6.07;;;26.40;54.50;;;;;;1959142;28;20019;-66
2023/05/27 13:51:13;;;;;;;21.52;6.05;;;25.90;55.50;;;;;;1958223;28;20038;-64
2023/05/27 13:52:11;;;;;;;15.73;5.97;;;25.40;56.30;;;;;;1957104;28;20019;-63
2023/05/27 13:53:08;;;;;;;11.40;5.07;;;25.20;57.10;;;;;;1953774;28;20046;-64
2023/05/27 13:54:06;;;;;;;20.60;6.45;;;25.00;57.90;;;;;;1952892;28;20081;-63
2023/05/27 13:55:04;;;;;;;18.80;5.63;;;24.70;58.90;;;;;;1955833;28;20041;-64
2023/05/27 13:56:01;;;;;;;17.13;5.55;;;24.40;58.90;;;;;;1955052;28;20093;-63
2023/05/27 13:56:59;;;;;;;15.55;5.97;;;24.10;59.50;;;;;;1956683;28;20051;-65
2023/05/27 13:57:57;;;;;;;16.60;5.43;;;23.80;60.30;;;;;;1953587;28;20018;-63
2023/05/27 13:58:55;;;;;;;18.42;6.28;;;23.60;60.80;;;;;;1955211;28;20030;-68
2023/05/27 13:59:52;;;;;;;18.55;5.75;;;23.50;61.90;;;;;;1958625;28;20026;-67
2023/05/27 14:00:50;;;;;;;12.77;5.40;;;23.40;61.80;;;;;;1960884;28;20060;-66
2023/05/27 14:01:49;;;;;;;12.35;4.85;;;23.20;62.10;;;;;;1953349;28;20515;-67
2023/05/27 14:02:47;;;;;;;19.02;5.88;;;23.00;62.60;;;;;;1953676;28;20014;-67
2023/05/27 14:03:44;;;;;;;19.48;5.97;;;22.90;63.00;;;;;;1957352;28;20108;-67
2023/05/27 14:04:43;;;;;;;22.77;6.47;;;22.70;63.40;;;;;;1954899;28;20026;-67
2023/05/27 14:05:40;;;;;;;12.10;5.35;;;22.60;63.80;;;;;;1956640;28;20022;-67
2023/05/27 14:06:38;;;;;;;15.80;5.20;;;22.50;64.30;;;;;;1956845;28;20022;-67
2023/05/27 14:07:42;;;;;;;11.85;5.78;;;22.40;64.80;;;;;;1955449;28;20047;-68
2023/05/27 14:08:40;;;;;;;15.35;5.55;;;22.30;65.30;;;;;;1963122;28;20139;-67
2023/05/27 14:09:38;;;;;;;16.52;6.78;;;22.20;65.60;;;;;;1960992;28;20022;-67
2023/05/27 14:10:35;;;;;;;12.45;5.07;;;22.10;66.10;;;;;;1955575;28;20022;-68
2023/05/27 14:11:33;;;;;;;12.70;5.10;;;22.10;66.50;;;;;;1957092;28;20026;-67
2023/05/27 14:12:30;;;;;;;13.82;5.13;;;22.00;66.90;;;;;;1954012;28;20041;-67
2023/05/27 14:13:28;;;;;;;11.07;4.47;;;22.00;67.40;;;;;;1954789;28;20115;-68
2023/05/27 14:14:25;;;;;;;13.05;5.40;;;21.90;67.60;;;;;;1954179;28;20027;-67
2023/05/27 14:15:27;;;;;;;11.63;4.85;;;21.90;68.00;;;;;;1955518;28;20046;-66
2023/05/27 14:16:25;;;;;;;11.80;5.03;;;21.80;68.40;;;;;;1955676;28;20019;-66
2023/05/27 14:17:22;;;;;;;11.32;5.10;;;21.80;68.70;;;;;;1963099;28;20085;-67
2023/05/27 14:18:20;;;;;;;12.02;5.13;;;21.80;69.30;;;;;;1956255;28;20018;-67
2023/05/27 14:19:18;;;;;;;17.38;5.30;;;21.70;69.60;;;;;;1954864;28;20109;-67
2023/05/27 14:20:15;;;;;;;14.80;5.75;;;21.70;69.90;;;;;;1954425;28;20014;-67
2023/05/27 14:21:14;;;;;;;13.43;5.03;;;21.50;70.10;;;;;;1956904;28;20689;-67
2023/05/27 14:22:11;;;;;;;11.50;5.13;;;21.70;71.20;;;;;;1962962;28;20034;-67
2023/05/27 14:23:12;;;;;;;13.20;4.60;;;21.60;70.80;;;;;;1960712;28;20040;-68
2023/05/27 14:24:09;;;;;;;11.80;5.00;;;21.50;71.00;;;;;;1955993;28;20542;-67
2023/05/27 14:25:07;;;;;;;11.65;5.15;;;21.60;71.50;;;;;;1954274;28;20026;-67
2023/05/27 14:26:05;;;;;;;14.02;5.35;;;21.60;71.90;;;;;;1948309;28;20123;-67
2023/05/27 14:27:03;;;;;;;12.02;4.97;;;21.50;72.10;;;;;;1955595;28;20073;-67
2023/05/27 14:28:03;;;;;;;11.85;4.75;;;21.60;72.30;;;;;;1952233;28;20019;-67
2023/05/27 14:29:01;;;;;;;12.07;5.00;;;21.50;72.60;;;;;;1955545;28;20031;-67
2023/05/27 14:29:59;;;;;;;9.52;4.50;;;21.50;73.00;;;;;;1955237;28;20022;-67
2023/05/27 14:30:56;;;;;;;9.93;4.72;;;21.50;73.20;;;;;;1960884;28;20108;-67
2023/05/27 14:31:54;;;;;;;9.15;4.38;;;21.50;73.50;;;;;;1961255;28;20033;-67
2023/05/27 14:32:51;;;;;;;10.98;5.32;;;21.50;73.80;;;;;;1957684;28;20468;-67
2023/05/27 14:33:49;;;;;;;14.82;4.50;;;21.50;74.10;;;;;;1955762;28;20114;-67
2023/05/27 14:34:46;;;;;;;10.13;5.38;;;21.40;74.30;;;;;;1963277;28;20026;-67
2023/05/27 14:35:44;;;;;;;11.13;4.82;;;21.40;74.70;;;;;;1961755;28;20774;-67
2023/05/27 14:36:42;;;;;;;18.77;4.80;;;21.40;75.00;;;;;;1955543;28;20053;-67
2023/05/27 14:37:39;;;;;;;11.82;4.70;;;21.40;75.20;;;;;;1954960;28;20029;-68
2023/05/27 14:38:37;;;;;;;13.73;5.85;;;21.40;75.30;;;;;;1956331;28;20038;-67
2023/05/27 14:39:34;;;;;;;9.20;4.65;;;21.40;75.60;;;;;;1952987;28;20542;-68
2023/05/27 14:40:32;;;;;;;11.77;5.13;;;21.40;75.80;;;;;;1962734;28;20097;-67
2023/05/27 14:41:30;;;;;;;11.85;5.05;;;21.40;76.10;;;;;;1962029;28;20041;-67
2023/05/27 14:42:28;;;;;;;9.23;4.43;;;21.40;76.40;;;;;;1957340;28;20033;-68
2023/05/27 14:43:25;;;;;;;7.93;3.88;;;21.40;76.50;;;;;;1955196;28;20038;-67
2023/05/27 14:44:23;;;;;;;8.80;4.30;;;21.40;76.60;;;;;;1956486;28;20066;-67
2023/05/27 14:45:22;;;;;;;11.13;4.60;;;21.40;76.90;;;;;;1952741;28;20476;-67
2023/05/27 14:46:19;;;;;;;9.88;4.72;;;21.30;77.00;;;;;;1956288;28;20018;-67
2023/05/27 14:47:17;;;;;;;8.57;4.60;;;21.30;77.20;;;;;;1955248;28;20030;-67
2023/05/27 14:48:14;;;;;;;12.43;4.93;;;21.30;77.40;;;;;;1954429;28;20038;-67
2023/05/27 14:49:12;;;;;;;12.98;4.57;;;21.30;77.40;;;;;;1950206;28;20034;-67
2023/05/27 14:50:10;;;;;;;14.70;4.35;;;21.30;77.60;;;;;;1951836;28;20026;-67
2023/05/27 14:51:07;;;;;;;8.63;4.43;;;21.30;77.80;;;;;;1951958;28;20027;-67
2023/05/27 14:52:05;;;;;;;13.45;4.80;;;21.30;77.80;;;;;;1950986;28;20046;-67
2023/05/27 14:53:02;;;;;;;11.40;5.00;;;21.30;77.90;;;;;;1950411;28;20030;-67
2023/05/27 14:54:00;;;;;;;8.00;4.20;;;21.30;78.10;;;;;;1949260;28;20397;-67
2023/05/27 14:54:58;;;;;;;6.70;3.92;;;21.40;78.30;;;;;;1950592;28;20088;-67
2023/05/27 14:55:56;;;;;;;9.98;4.35;;;21.30;78.50;;;;;;1948355;28;20079;-67
2023/05/27 14:56:53;;;;;;;6.38;3.95;;;21.30;78.50;;;;;;1950283;28;20604;-67
2023/05/27 14:57:51;;;;;;;8.25;4.70;;;21.30;78.60;;;;;;1950356;28;20019;-67
2023/05/27 14:58:48;;;;;;;9.43;4.30;;;21.30;78.80;;;;;;1950284;28;20031;-67
2023/05/27 14:59:46;;;;;;;8.93;4.55;;;21.30;78.80;;;;;;1955343;28;20573;-67
2023/05/27 15:00:44;;;;;;;8.70;4.25;;;21.30;78.90;;;;;;1951195;28;20080;-68
2023/05/27 15:01:43;;;;;;;13.27;4.32;;;21.30;78.90;;;;;;1950851;28;20027;-67
2023/05/27 15:02:41;;;;;;;8.60;4.18;;;21.30;79.10;;;;;;1951017;28;20019;-67
2023/05/27 15:03:38;;;;;;;12.32;4.53;;;21.30;79.10;;;;;;1949311;28;20027;-67
2023/05/27 15:04:36;;;;;;;9.50;4.50;;;21.30;79.10;;;;;;1944059;28;20126;-67
2023/05/27 15:05:34;;;;;;;12.55;4.63;;;21.30;79.10;;;;;;1948786;28;20031;-67
2023/05/27 15:06:31;;;;;;;7.22;3.70;;;21.30;79.20;;;;;;1947130;28;20030;-66
2023/05/27 15:07:29;;;;;;;9.10;4.05;;;21.40;79.50;;;;;;1943018;28;20027;-68
2023/05/27 15:08:27;;;;;;;11.02;4.25;;;21.30;80.00;;;;;;1946657;28;20039;-65
2023/05/27 15:09:24;;;;;;;6.95;4.13;;;21.50;79.90;;;;;;1950094;28;20071;-67
2023/05/27 15:10:22;;;;;;;5.82;3.92;;;21.50;79.50;;;;;;1951578;28;20474;-65
2023/05/27 15:11:20;;;;;;;11.68;3.90;;;21.60;79.30;;;;;;1947409;28;20050;-65
2023/05/27 15:12:17;;;;;;;7.63;4.38;;;21.60;79.20;;;;;;1950210;28;20607;-65
2023/05/27 15:13:15;;;;;;;9.98;3.95;;;21.70;79.10;;;;;;1948637;28;21036;-66
2023/05/27 15:14:12;;;;;;;10.10;4.57;;;21.70;78.70;;;;;;1945803;28;20115;-66
2023/05/27 15:15:11;;;;;;;8.98;4.38;;;21.70;80.00;;;;;;1949562;28;20031;-64
2023/05/27 15:16:08;;;;;;;8.88;4.55;;;21.70;79.10;;;;;;1947121;28;20110;-64
2023/05/27 15:17:10;;;;;;;11.50;5.25;;;21.70;79.00;;;;;;1805735;28;2587361;-64
2023/05/27 15:18:08;;;;;;;11.85;4.68;;;21.70;79.20;;;;;;1964803;28;20355;-66
2023/05/27 15:19:06;;;;;;;16.52;4.47;;;21.80;79.00;;;;;;1962491;28;20026;-63
2023/05/27 15:20:04;;;;;;;16.38;5.07;;;21.80;81.60;;;;;;1962781;28;20479;-64
2023/05/27 15:21:02;;;;;;;6.78;4.15;;;21.80;79.60;;;;;;1932618;28;20172;-69
2023/05/27 15:21:59;;;;;;;11.90;4.63;;;21.90;80.70;;;;;;1964373;28;20044;-68
2023/05/27 15:22:57;;;;;;;9.65;4.13;;;21.90;79.30;;;;;;1960123;28;20515;-67
2023/05/27 15:23:54;;;;;;;7.43;4.40;;;22.00;87.60;;;;;;1961769;28;20036;-69
2023/05/27 15:24:52;;;;;;;8.80;4.07;;;22.00;79.20;;;;;;1956858;28;20578;-69
2023/05/27 15:25:49;;;;;;;13.30;4.68;;;21.90;77.90;;;;;;1954680;28;20081;-68
2023/05/27 15:26:47;;;;;;;12.15;5.60;;;21.90;77.80;;;;;;1959119;28;20049;-65
2023/05/27 15:27:44;;;;;;;11.18;4.75;;;22.00;77.80;;;;;;1963457;28;20037;-66
2023/05/27 15:28:42;;;;;;;8.75;4.25;;;22.00;77.60;;;;;;1961966;28;20034;-64
2023/05/27 15:29:39;;;;;;;14.00;4.80;;;22.00;78.00;;;;;;1961051;28;20034;-66
2023/05/27 15:30:38;;;;;;;6.55;3.58;;;21.90;77.60;;;;;;1963409;28;20038;-65
2023/05/27 15:31:35;;;;;;;7.25;4.13;;;21.90;77.50;;;;;;1964294;28;20034;-65
2023/05/27 15:32:33;;;;;;;10.77;4.22;;;21.90;77.30;;;;;;1961673;28;20959;-72
2023/05/27 15:33:30;;;;;;;13.10;4.22;;;22.10;77.60;;;;;;1962533;28;20057;-65
2023/05/27 15:34:28;;;;;;;10.65;4.60;;;21.90;77.40;;;;;;1962257;28;20026;-76
2023/05/27 15:35:25;;;;;;;11.38;4.90;;;21.90;77.50;;;;;;1960938;28;20400;-67
2023/05/27 15:36:23;;;;;;;8.48;4.43;;;21.90;77.60;;;;;;1960217;28;20117;-64
2023/05/27 15:37:20;;;;;;;12.60;4.97;;;22.00;77.20;;;;;;1937868;28;20345;-66
2023/05/27 15:38:18;;;;;;;8.60;4.97;;;21.90;77.20;;;;;;1959808;28;20109;-67
2023/05/27 15:39:15;;;;;;;10.00;4.78;;;21.90;77.20;;;;;;1958443;28;20029;-67
2023/05/27 15:40:13;;;;;;;9.05;4.28;;;21.90;77.40;;;;;;1965178;28;20025;-66
2023/05/27 15:41:10;;;;;;;10.30;4.93;;;21.90;77.50;;;;;;1957254;28;20038;-67
2023/05/27 15:42:08;;;;;;;8.02;4.53;;;21.80;77.50;;;;;;1954210;28;20037;-68
2023/05/27 15:43:05;;;;;;;7.45;4.00;;;21.90;77.50;;;;;;1952220;28;20034;-68
2023/05/27 15:44:03;;;;;;;11.73;4.28;;;21.80;78.00;;;;;;1960358;28;20022;-67
2023/05/27 15:45:00;;;;;;;11.73;4.53;;;21.80;78.00;;;;;;1970196;28;20024;-67
2023/05/27 15:45:58;;;;;;;10.38;4.85;;;21.80;78.50;;;;;;1961431;28;20042;-68
2023/05/27 15:46:56;;;;;;;10.77;4.68;;;21.80;77.80;;;;;;1963842;28;20014;-66
2023/05/27 15:47:54;;;;;;;8.15;4.30;;;21.80;77.70;;;;;;1959161;28;20019;-66
2023/05/27 15:48:51;;;;;;;7.93;5.05;;;21.80;77.90;;;;;;1965090;28;20029;-65
2023/05/27 15:49:49;;;;;;;9.77;4.63;;;21.80;77.50;;;;;;1961338;28;20022;-68
2023/05/27 15:50:48;;;;;;;13.50;5.00;;;21.80;77.50;;;;;;1960906;28;20029;-64
2023/05/27 15:51:46;;;;;;;8.77;5.10;;;21.80;77.50;;;;;;1960869;28;20026;-69
2023/05/27 15:52:43;;;;;;;11.27;5.38;;;21.80;78.20;;;;;;1961118;28;20037;-67
2023/05/27 15:53:41;;;;;;;11.77;5.75;;;21.70;77.50;;;;;;1962623;28;20037;-67
2023/05/27 15:54:39;;;;;;;12.02;6.05;;;21.80;77.50;;;;;;1959920;28;20077;-68
2023/05/27 15:55:36;;;;;;;13.38;6.35;;;21.70;77.60;;;;;;1959621;28;20038;-68
2023/05/27 15:56:34;;;;;;;11.55;5.90;;;21.70;78.30;;;;;;1963801;28;20017;-66
2023/05/27 15:57:31;;;;;;;9.93;6.38;;;21.80;78.40;;;;;;1959910;28;20446;-68
2023/05/27 15:58:29;;;;;;;10.20;6.03;;;21.70;78.40;;;;;;1961738;28;20029;-66
2023/05/27 15:59:26;;;;;;;13.70;6.40;;;21.70;78.40;;;;;;1964204;28;20539;-68
2023/05/27 16:00:24;;;;;;;8.45;5.50;;;21.70;79.30;;;;;;1959545;28;20034;-68
2023/05/27 16:01:21;;;;;;;7.75;5.57;;;21.70;78.60;;;;;;1963220;28;20022;-69
2023/05/27 16:02:19;;;;;;;9.30;6.18;;;21.70;78.80;;;;;;1963020;28;20076;-69
2023/05/27 16:03:18;;;;;;;9.07;6.00;;;21.70;78.30;;;;;;1959944;28;20058;-68
2023/05/27 16:04:15;;;;;;;8.23;5.65;;;21.70;78.30;;;;;;1961740;28;20332;-68
2023/05/27 16:05:14;;;;;;;12.40;5.97;;;21.70;78.30;;;;;;1961366;28;20041;-67
2023/05/27 16:06:12;;;;;;;10.63;6.50;;;21.70;78.60;;;;;;1959094;28;20018;-66
2023/05/27 16:07:09;;;;;;;9.20;6.05;;;21.70;78.40;;;;;;1962418;28;20056;-66
2023/05/27 16:11:35;;;;;;;12.50;5.35;;;22.20;64.30;;;;;;1986822;28;20396;-65
2023/05/27 16:12:33;;;;;;;9.40;5.35;;;22.50;64.60;;;;;;1977166;28;20521;-64
2023/05/27 16:13:31;;;;;;;11.38;5.43;;;22.60;63.30;;;;;;1978362;28;20029;-66
2023/05/27 16:14:28;;;;;;;7.95;4.88;;;22.70;62.30;;;;;;1980271;28;20059;-64
2023/05/27 16:15:26;;;;;;;15.40;5.75;;;22.70;62.20;;;;;;1981489;28;20097;-64
2023/05/27 16:16:23;;;;;;;11.07;5.80;;;22.70;60.90;;;;;;1976584;28;20030;-64
2023/05/27 16:17:21;;;;;;;16.83;5.97;;;22.80;62.80;;;;;;1971685;28;20151;-65
2023/05/27 16:18:19;;;;;;;11.88;5.00;;;22.80;62.30;;;;;;1975893;28;20056;-65
2023/05/27 16:19:16;;;;;;;17.02;5.72;;;22.90;62.40;;;;;;1976451;28;20076;-65
2023/05/27 16:20:14;;;;;;;8.30;5.15;;;22.90;61.90;;;;;;1978601;28;20486;-65
2023/05/27 16:21:12;;;;;;;12.02;5.30;;;22.90;61.20;;;;;;1980121;28;20021;-64
2023/05/27 16:22:10;;;;;;;10.18;4.53;;;22.90;62.00;;;;;;1979915;28;20390;-64
2023/05/27 16:23:08;;;;;;;9.07;5.05;;;22.90;62.00;;;;;;1979383;28;20072;-64
2023/05/27 16:24:05;;;;;;;9.15;5.47;;;22.90;62.50;;;;;;1980682;28;20107;-65
2023/05/27 16:25:03;;;;;;;10.77;5.70;;;22.90;63.40;;;;;;1979550;28;20067;-65
2023/05/27 16:26:00;;;;;;;12.73;4.97;;;23.00;61.90;;;;;;1974961;28;20061;-65
2023/05/27 16:26:58;;;;;;;11.68;5.28;;;23.00;60.40;;;;;;1978835;28;20021;-64
2023/05/27 16:27:56;;;;;;;10.60;5.65;;;23.00;59.80;;;;;;1978488;28;20919;-64
2023/05/27 16:28:53;;;;;;;12.25;5.45;;;23.00;61.20;;;;;;1977429;28;20071;-65
2023/05/27 16:29:51;;;;;;;10.00;5.55;;;23.00;60.90;;;;;;1978090;28;20036;-64
2023/05/27 16:30:49;;;;;;;9.68;5.22;;;23.00;59.80;;;;;;1976246;28;20057;-65
2023/05/27 16:31:46;;;;;;;9.30;4.40;;;23.00;61.30;;;;;;1976792;28;20021;-64
2023/05/27 16:32:44;;;;;;;10.90;5.07;;;23.00;60.50;;;;;;1976531;28;20025;-65
2023/05/27 16:33:42;;;;;;;7.78;4.88;;;23.00;59.50;;;;;;1979139;28;20021;-65
2023/05/27 16:34:39;;;;;;;11.93;5.28;;;23.00;60.50;;;;;;1978717;28;20039;-66
2023/05/27 16:35:37;;;;;;;11.75;4.70;;;23.00;60.80;;;;;;1981016;28;20533;-65
2023/05/27 16:36:36;;;;;;;13.18;4.93;;;23.20;60.40;;;;;;1979054;28;20022;-64
2023/05/27 16:37:33;;;;;;;16.50;5.22;;;22.90;59.10;;;;;;1980051;28;20017;-65
2023/05/27 16:38:31;;;;;;;10.95;6.03;;;22.90;58.50;;;;;;1976890;28;20029;-64
2023/05/27 16:39:28;;;;;;;8.60;4.63;;;22.90;58.90;;;;;;1980291;28;20052;-65
2023/05/27 16:40:26;;;;;;;11.70;4.88;;;22.90;59.90;;;;;;1977032;28;20036;-65
2023/05/27 16:41:24;;;;;;;7.80;4.78;;;22.80;59.80;;;;;;1980226;28;20343;-65
2023/05/27 16:42:21;;;;;;;9.60;4.72;;;22.70;60.40;;;;;;1978189;28;20063;-65
2023/05/27 16:43:19;;;;;;;16.58;5.10;;;22.80;60.20;;;;;;1978952;28;20025;-65
2023/05/27 16:44:16;;;;;;;16.55;5.20;;;22.70;59.90;;;;;;1978934;28;20098;-65
2023/05/27 16:45:14;;;;;;;9.02;5.20;;;22.70;61.00;;;;;;1978510;28;20470;-65
2023/05/27 16:46:11;;;;;;;10.35;5.05;;;22.70;61.60;;;;;;1976705;28;20038;-65
2023/05/27 16:47:09;;;;;;;7.75;5.28;;;22.70;62.10;;;;;;1980849;28;20051;-64
2023/05/27 16:48:07;;;;;;;8.43;4.88;;;22.70;60.30;;;;;;1974842;28;20067;-65
2023/05/27 16:49:04;;;;;;;11.02;4.80;;;22.70;58.40;;;;;;1977957;28;20025;-65
2023/05/27 16:50:03;;;;;;;12.80;5.30;;;22.70;59.00;;;;;;1981750;28;20503;-64
2023/05/27 16:51:03;;;;;;;14.02;6.07;;;22.70;59.60;;;;;;1976303;28;20033;-65
2023/05/27 16:52:00;;;;;;;9.80;5.50;;;22.70;60.10;;;;;;1979357;28;20041;-65
2023/05/27 16:52:58;;;;;;;9.18;4.85;;;22.60;59.90;;;;;;1977764;28;20048;-65
2023/05/27 16:53:55;;;;;;;10.43;4.97;;;22.50;60.40;;;;;;1978423;28;20017;-65
2023/05/27 16:54:53;;;;;;;14.43;5.55;;;22.40;58.60;;;;;;1979141;28;20018;-66
2023/05/27 16:55:50;;;;;;;8.60;5.22;;;22.50;59.70;;;;;;1974717;28;20144;-65
2023/05/27 16:56:48;;;;;;;9.93;4.95;;;22.50;59.60;;;;;;1975714;28;20533;-65
2023/05/27 16:57:45;;;;;;;9.57;5.10;;;22.40;59.10;;;;;;1978215;28;20136;-64
2023/05/27 16:58:43;;;;;;;6.78;4.70;;;22.40;59.60;;;;;;1976310;28;20029;-65
2023/05/27 16:59:40;;;;;;;12.07;5.60;;;22.30;61.40;;;;;;1978539;28;20022;-65
2023/05/27 17:00:38;;;;;;;10.57;5.07;;;22.30;61.60;;;;;;1977803;28;20032;-65
2023/05/27 17:01:35;;;;;;;14.48;5.78;;;22.40;61.20;;;;;;1978818;28;20394;-64
2023/05/27 17:02:33;;;;;;;10.20;5.20;;;22.40;60.80;;;;;;1977707;28;20037;-65
2023/05/27 17:03:30;;;;;;;8.95;5.07;;;22.30;61.50;;;;;;1974812;28;20463;-64
2023/05/27 17:04:28;;;;;;;9.13;4.57;;;22.40;59.70;;;;;;1981544;28;20021;-65
2023/05/27 17:05:25;;;;;;;10.65;5.25;;;22.30;58.90;;;;;;1976637;28;20454;-65
2023/05/27 17:06:23;;;;;;;10.25;4.70;;;22.40;58.80;;;;;;1976403;28;20108;-65
2023/05/27 17:07:20;;;;;;;13.13;5.82;;;22.40;58.50;;;;;;1978650;28;20421;-64
2023/05/27 17:08:18;;;;;;;8.20;4.60;;;22.30;58.50;;;;;;1980604;28;20056;-64
2023/05/27 17:09:16;;;;;;;8.95;5.13;;;22.20;59.30;;;;;;1978354;28;20037;-65
2023/05/27 17:10:14;;;;;;;15.82;5.57;;;22.10;60.00;;;;;;1974244;28;21499;-64
2023/05/27 17:11:11;;;;;;;6.97;4.93;;;22.30;59.70;;;;;;1977697;28;20057;-65
2023/05/27 17:12:09;;;;;;;12.77;5.47;;;22.20;60.00;;;;;;1977394;28;20025;-64
2023/05/27 17:13:07;;;;;;;13.52;5.25;;;22.10;59.50;;;;;;1978167;28;20071;-65
2023/05/27 17:14:04;;;;;;;8.75;5.20;;;22.00;58.50;;;;;;1977772;28;20340;-64
2023/05/27 17:15:02;;;;;;;9.52;5.10;;;22.00;58.90;;;;;;1977494;28;20037;-65
2023/05/27 17:16:00;;;;;;;9.35;5.05;;;21.90;60.40;;;;;;1977804;28;20582;-65
2023/05/27 17:16:57;;;;;;;12.15;4.93;;;21.90;59.90;;;;;;1977145;28;20029;-65
2023/05/27 17:17:55;;;;;;;10.07;5.28;;;21.90;60.70;;;;;;1977748;28;20033;-62
2023/05/27 17:18:52;;;;;;;10.98;4.80;;;21.80;60.40;;;;;;1976161;28;20028;-62
2023/05/27 17:19:50;;;;;;;9.35;5.05;;;21.80;60.00;;;;;;1977703;28;20041;-62
2023/05/27 17:20:48;;;;;;;8.57;5.15;;;21.80;60.20;;;;;;1978309;28;20051;-62
2023/05/27 17:21:45;;;;;;;7.43;4.82;;;21.80;60.40;;;;;;1976946;28;20455;-62
2023/05/27 17:22:43;;;;;;;10.50;5.35;;;21.80;60.40;;;;;;1975446;28;20022;-62
2023/05/27 17:23:40;;;;;;;13.43;5.45;;;21.80;60.90;;;;;;1972745;28;20026;-62
2023/05/27 17:24:38;;;;;;;22.85;5.70;;;21.70;61.40;;;;;;1974354;28;20036;-62
2023/05/27 17:25:35;;;;;;;6.75;4.47;;;21.70;60.20;;;;;;1972516;28;20045;-62
2023/05/27 17:26:33;;;;;;;7.40;4.95;;;21.70;60.50;;;;;;1975545;28;20037;-62
2023/05/27 17:27:31;;;;;;;8.85;4.85;;;21.80;59.90;;;;;;1973012;28;22339;-62
2023/05/27 17:28:29;;;;;;;9.30;5.13;;;21.70;59.70;;;;;;1971578;28;20057;-62
2023/05/27 17:29:26;;;;;;;10.27;4.90;;;21.80;60.50;;;;;;1972201;28;20044;-62
2023/05/27 17:30:24;;;;;;;9.05;4.95;;;21.80;61.00;;;;;;1970356;28;20033;-64
2023/05/27 17:31:22;;;;;;;9.38;5.60;;;21.80;61.40;;;;;;1972847;28;20104;-64
2023/05/27 17:32:19;;;;;;;7.95;4.95;;;21.70;60.80;;;;;;1974685;28;20437;-65
2023/05/27 17:33:17;;;;;;;17.35;4.88;;;21.70;60.40;;;;;;1972365;28;20028;-64
2023/05/27 17:34:14;;;;;;;14.77;5.03;;;21.70;61.80;;;;;;1974730;28;20025;-64
2023/05/27 17:35:12;;;;;;;8.95;5.03;;;21.60;61.60;;;;;;1973050;28;20037;-64
2023/05/27 17:36:10;;;;;;;13.60;5.10;;;21.60;62.00;;;;;;1972977;28;20029;-64
2023/05/27 17:37:08;;;;;;;45.40;8.68;;;21.60;63.10;;;;;;1972148;28;20107;-64
2023/05/27 17:38:05;;;;;;;14.23;5.05;;;21.60;62.30;;;;;;1974406;28;20702;-64
2023/05/27 17:39:03;;;;;;;10.98;5.30;;;21.40;60.90;;;;;;1971020;28;20282;-64
2023/05/27 17:40:05;;;;;;;9.38;4.82;;;21.40;61.40;;;;;;1972004;28;20033;-64
2023/05/27 17:41:06;;;;;;;11.18;5.38;;;21.40;61.90;;;;;;1973601;28;20048;-64
2023/05/27 17:42:03;;;;;;;10.57;4.83;;;21.30;61.60;;;;;;1972676;28;20030;-64
2023/05/27 17:43:01;;;;;;;15.80;5.03;;;21.30;61.50;;;;;;1971654;28;20671;-64
2023/05/27 17:43:59;;;;;;;8.00;4.80;;;21.30;60.50;;;;;;1970885;28;20056;-64
2023/05/27 17:44:56;;;;;;;7.82;4.85;;;21.30;60.30;;;;;;1968728;28;20678;-64
2023/05/27 17:45:54;;;;;;;9.45;4.93;;;21.30;61.30;;;;;;1972612;28;20041;-64
2023/05/27 17:46:51;;;;;;;11.05;5.35;;;21.30;61.10;;;;;;1972534;28;20437;-64
2023/05/27 17:47:49;;;;;;;8.27;4.53;;;21.30;61.60;;;;;;1971875;28;20339;-64
2023/05/27 17:48:46;;;;;;;11.02;4.75;;;21.30;61.90;;;;;;1969645;28;20506;-64
2023/05/27 17:49:45;;;;;;;11.85;4.97;;;21.20;61.20;;;;;;1973351;28;20025;-64
2023/05/27 17:50:42;;;;;;;7.40;4.53;;;21.10;62.60;;;;;;1973064;28;20698;-64
2023/05/27 17:51:40;;;;;;;11.90;4.78;;;21.00;62.00;;;;;;1969667;28;20083;-63
2023/05/27 17:52:37;;;;;;;11.00;4.63;;;21.10;62.30;;;;;;1973571;28;20029;-63
2023/05/27 17:53:35;;;;;;;9.05;5.28;;;21.10;62.50;;;;;;1972133;28;20625;-63
2023/05/27 17:54:32;;;;;;;8.90;5.32;;;21.00;62.60;;;;;;1965951;28;20029;-64
2023/05/27 17:55:30;;;;;;;8.80;5.45;;;21.00;63.60;;;;;;1967572;28;20035;-63
2023/05/27 17:56:27;;;;;;;11.25;5.28;;;21.00;63.90;;;;;;1966008;28;20038;-63
2023/05/27 17:57:25;;;;;;;13.23;5.05;;;21.00;61.90;;;;;;1972936;28;20026;-64
2023/05/27 17:58:23;;;;;;;9.43;4.63;;;20.90;62.80;;;;;;1970320;28;20021;-64
2023/05/27 17:59:20;;;;;;;10.48;5.35;;;20.90;63.90;;;;;;1969937;28;20390;-63
2023/05/27 18:00:18;;;;;;;8.60;4.55;;;20.80;63.80;;;;;;1974222;28;20092;-64
2023/05/27 18:01:15;;;;;;;8.05;4.68;;;20.80;63.80;;;;;;1975214;28;20029;-64
2023/05/27 18:02:14;;;;;;;10.75;4.88;;;20.80;64.30;;;;;;1973232;28;20053;-64
2023/05/27 18:03:11;;;;;;;7.15;4.72;;;20.80;64.60;;;;;;1974094;28;20394;-64
2023/05/27 18:04:09;;;;;;;9.48;5.00;;;20.70;64.80;;;;;;1972473;28;20125;-64
2023/05/27 18:05:07;;;;;;;12.35;4.80;;;20.70;64.40;;;;;;1972279;28;20033;-63
2023/05/27 18:06:08;;;;;;;8.60;4.70;;;20.70;64.40;;;;;;1972950;28;20030;-63
2023/05/27 18:07:06;;;;;;;13.02;5.15;;;20.60;64.70;;;;;;1973873;28;20179;-64
2023/05/27 18:08:03;;;;;;;11.50;4.97;;;20.60;63.50;;;;;;1973523;28;20029;-64
2023/05/27 18:09:05;;;;;;;7.88;4.82;;;20.60;64.10;;;;;;1971286;28;20104;-63
2023/05/27 18:10:02;;;;;;;11.45;4.97;;;20.60;63.90;;;;;;1972363;28;20053;-63
2023/05/27 18:11:00;;;;;;;13.25;4.72;;;20.50;63.90;;;;;;1973475;28;20032;-64
2023/05/27 18:11:58;;;;;;;8.35;4.53;;;20.50;63.40;;;;;;1972519;28;20065;-63
2023/05/27 18:12:55;;;;;;;13.20;4.55;;;20.50;64.60;;;;;;1971115;28;20026;-63
2023/05/27 18:13:53;;;;;;;7.97;4.95;;;20.40;64.80;;;;;;1966469;28;20476;-63
2023/05/27 18:14:50;;;;;;;13.48;5.43;;;20.40;64.90;;;;;;1970253;28;20049;-63
2023/05/27 18:15:48;;;;;;;9.02;5.20;;;20.40;65.90;;;;;;1971185;28;20503;-63
2023/05/27 18:16:45;;;;;;;7.30;4.93;;;20.30;65.20;;;;;;1967610;28;20204;-62
2023/05/27 18:17:43;;;;;;;11.25;4.55;;;20.30;65.80;;;;;;1968072;28;20025;-63
2023/05/27 18:18:40;;;;;;;11.80;4.35;;;20.30;66.20;;;;;;1967190;28;20329;-63
2023/05/27 18:19:38;;;;;;;10.95;5.63;;;20.20;66.00;;;;;;1967385;28;20035;-63
2023/05/27 18:20:36;;;;;;;9.02;5.03;;;20.20;66.00;;;;;;1970249;28;20030;-63
2023/05/27 18:21:34;;;;;;;9.30;5.18;;;20.10;66.00;;;;;;1974008;28;20553;-63
2023/05/27 18:22:31;;;;;;;12.25;5.50;;;20.10;66.60;;;;;;1970708;28;20646;-63